sensor_id;sensor_type;location;lat;lon;timestamp;P1;P2;P0
65680;PMS5003;61747;54.966;73.394;2022-09-02T00:01:15;5.00;5.00;0.00
65680;PMS5003;61747;54.966;73.394;2022-09-02T00:03:46;4.00;3.00;0.00
65680;PMS5003;61747;54.966;73.394;2022-09-02T00:06:12;4.00;3.00;0.00
65680;PMS5003;61747;54.966;73.394;2022-09-02T00:08:38;4.00;3.00;0.00
65680;PMS5003;61747;54.966;73.394;2022-09-02T00:11:03;7.00;6.00;0.00
65680;PMS5003;61747;54.966;73.394;2022-09-02T00:13:40;2.75;2.00;0.00
65680;PMS5003;61747;54.966;73.394;2022-09-02T00:16:08;3.00;2.75;0.00
65680;PMS5003;61747;54.966;73.394;2022-09-02T00:18:35;4.50;3.75;0.00
65680;PMS5003;61747;54.966;73.394;2022-09-02T00:21:12;5.00;4.00;0.00
65680;PMS5003;61747;54.966;73.394;2022-09-02T00:23:48;3.50;3.00;0.00
65680;PMS5003;61747;54.966;73.394;2022-09-02T00:26:19;5.00;5.00;0.00
65680;PMS5003;61747;54.966;73.394;2022-09-02T00:28:48;3.75;3.25;0.00
65680;PMS5003;61747;54.966;73.394;2022-09-02T00:31:14;5.00;4.00;0.00
65680;PMS5003;61747;54.966;73.394;2022-09-02T00:33:50;5.00;5.00;0.75
65680;PMS5003;61747;54.966;73.394;2022-09-02T00:36:16;5.00;4.50;0.00
65680;PMS5003;61747;54.966;73.394;2022-09-02T00:38:42;4.50;2.25;0.00
65680;PMS5003;61747;54.966;73.394;2022-09-02T00:41:08;3.33;3.00;0.00
65680;PMS5003;61747;54.966;73.394;2022-09-02T00:43:45;4.00;4.00;0.00
65680;PMS5003;61747;54.966;73.394;2022-09-02T00:46:22;5.00;4.00;0.00
65680;PMS5003;61747;54.966;73.394;2022-09-02T00:49:12;2.50;2.50;0.00
65680;PMS5003;61747;54.966;73.394;2022-09-02T00:51:40;5.00;3.75;0.00
65680;PMS5003;61747;54.966;73.394;2022-09-02T00:54:07;4.50;4.00;0.00
65680;PMS5003;61747;54.966;73.394;2022-09-02T00:56:34;1.00;1.00;0.00
65680;PMS5003;61747;54.966;73.394;2022-09-02T00:59:00;3.25;1.00;0.00
65680;PMS5003;61747;54.966;73.394;2022-09-02T01:01:26;2.67;2.00;0.00
65680;PMS5003;61747;54.966;73.394;2022-09-02T01:03:52;4.00;1.00;0.00
65680;PMS5003;61747;54.966;73.394;2022-09-02T01:06:19;4.00;2.00;0.00
65680;PMS5003;61747;54.966;73.394;2022-09-02T01:08:59;5.00;3.00;0.00
65680;PMS5003;61747;54.966;73.394;2022-09-02T01:11:29;2.00;2.00;0.00
65680;PMS5003;61747;54.966;73.394;2022-09-02T01:14:03;3.00;2.00;0.00
65680;PMS5003;61747;54.966;73.394;2022-09-02T01:16:50;2.00;1.00;0.00
65680;PMS5003;61747;54.966;73.394;2022-09-02T01:19:19;3.00;1.00;0.00
65680;PMS5003;61747;54.966;73.394;2022-09-02T01:21:55;4.00;2.00;0.00
65680;PMS5003;61747;54.966;73.394;2022-09-02T01:24:29;2.50;2.00;0.00
65680;PMS5003;61747;54.966;73.394;2022-09-02T01:26:56;4.00;1.75;0.00
65680;PMS5003;61747;54.966;73.394;2022-09-02T01:29:27;1.50;1.50;0.00
65680;PMS5003;61747;54.966;73.394;2022-09-02T01:31:53;5.00;5.00;0.00
65680;PMS5003;61747;54.966;73.394;2022-09-02T01:34:20;4.75;3.00;0.00
65680;PMS5003;61747;54.966;73.394;2022-09-02T01:36:45;1.75;1.00;0.00
65680;PMS5003;61747;54.966;73.394;2022-09-02T01:39:11;2.00;1.00;0.00
65680;PMS5003;61747;54.966;73.394;2022-09-02T01:41:37;2.00;0.00;0.00
65680;PMS5003;61747;54.966;73.394;2022-09-02T01:44:13;3.00;3.00;0.00
65680;PMS5003;61747;54.966;73.394;2022-09-02T01:46:42;3.00;2.25;0.00
65680;PMS5003;61747;54.966;73.394;2022-09-02T01:49:19;2.00;1.25;0.00
65680;PMS5003;61747;54.966;73.394;2022-09-02T01:51:54;3.50;3.00;0.00
65680;PMS5003;61747;54.966;73.394;2022-09-02T01:54:20;3.00;2.00;0.00
65680;PMS5003;61747;54.966;73.394;2022-09-02T01:56:51;2.00;2.00;0.00
65680;PMS5003;61747;54.966;73.394;2022-09-02T01:59:17;2.75;2.00;0.00
65680;PMS5003;61747;54.966;73.394;2022-09-02T02:01:52;3.75;3.00;0.00
65680;PMS5003;61747;54.966;73.394;2022-09-02T02:04:29;2.00;1.00;0.00
65680;PMS5003;61747;54.966;73.394;2022-09-02T02:06:56;5.00;1.00;0.00
65680;PMS5003;61747;54.966;73.394;2022-09-02T02:09:23;4.50;3.25;0.00
65680;PMS5003;61747;54.966;73.394;2022-09-02T02:11:50;13.00;7.75;1.00
65680;PMS5003;61747;54.966;73.394;2022-09-02T02:14:19;19.00;15.50;6.75
65680;PMS5003;61747;54.966;73.394;2022-09-02T02:16:47;20.25;14.25;5.00
65680;PMS5003;61747;54.966;73.394;2022-09-02T02:19:18;17.00;14.00;3.00
65680;PMS5003;61747;54.966;73.394;2022-09-02T02:21:46;10.00;6.00;0.00
65680;PMS5003;61747;54.966;73.394;2022-09-02T02:24:12;5.33;3.00;0.00
65680;PMS5003;61747;54.966;73.394;2022-09-02T02:26:38;5.00;3.00;0.00
65680;PMS5003;61747;54.966;73.394;2022-09-02T02:29:06;5.00;4.00;0.00
65680;PMS5003;61747;54.966;73.394;2022-09-02T02:31:38;4.00;2.75;0.00
65680;PMS5003;61747;54.966;73.394;2022-09-02T02:34:04;5.00;3.00;0.00
65680;PMS5003;61747;54.966;73.394;2022-09-02T02:36:31;3.75;2.00;0.00
65680;PMS5003;61747;54.966;73.394;2022-09-02T02:38:57;2.00;2.00;0.00
65680;PMS5003;61747;54.966;73.394;2022-09-02T02:41:23;3.75;3.00;0.00
65680;PMS5003;61747;54.966;73.394;2022-09-02T02:43:50;3.25;3.00;0.00
65680;PMS5003;61747;54.966;73.394;2022-09-02T02:46:16;3.00;3.00;0.00
65680;PMS5003;61747;54.966;73.394;2022-09-02T02:48:53;3.75;3.50;0.00
65680;PMS5003;61747;54.966;73.394;2022-09-02T02:51:19;5.00;5.00;0.00
65680;PMS5003;61747;54.966;73.394;2022-09-02T02:53:44;4.25;4.00;0.00
65680;PMS5003;61747;54.966;73.394;2022-09-02T02:56:21;5.00;4.00;0.00
65680;PMS5003;61747;54.966;73.394;2022-09-02T02:58:49;5.00;4.50;0.00
65680;PMS5003;61747;54.966;73.394;2022-09-02T03:01:15;5.00;4.00;0.00
65680;PMS5003;61747;54.966;73.394;2022-09-02T03:03:41;5.00;2.50;0.00
65680;PMS5003;61747;54.966;73.394;2022-09-02T03:06:14;4.00;3.00;0.00
65680;PMS5003;61747;54.966;73.394;2022-09-02T03:08:47;3.00;3.00;0.00
65680;PMS5003;61747;54.966;73.394;2022-09-02T03:11:19;5.00;4.75;0.00
65680;PMS5003;61747;54.966;73.394;2022-09-02T03:13:48;3.25;2.00;0.00
65680;PMS5003;61747;54.966;73.394;2022-09-02T03:16:14;4.00;3.00;0.00
65680;PMS5003;61747;54.966;73.394;2022-09-02T03:18:40;3.25;2.25;0.00
65680;PMS5003;61747;54.966;73.394;2022-09-02T03:21:11;5.00;5.00;0.00
65680;PMS5003;61747;54.966;73.394;2022-09-02T03:23:44;6.00;5.50;0.00
65680;PMS5003;61747;54.966;73.394;2022-09-02T03:26:21;14.75;11.25;4.75
65680;PMS5003;61747;54.966;73.394;2022-09-02T03:28:48;14.00;11.00;3.00
65680;PMS5003;61747;54.966;73.394;2022-09-02T03:31:15;8.00;5.25;2.00
65680;PMS5003;61747;54.966;73.394;2022-09-02T03:33:47;7.00;5.00;3.00
65680;PMS5003;61747;54.966;73.394;2022-09-02T03:36:27;11.75;10.25;4.75
65680;PMS5003;61747;54.966;73.394;2022-09-02T03:38:54;17.50;15.00;6.25
65680;PMS5003;61747;54.966;73.394;2022-09-02T03:41:21;12.00;12.00;4.00
65680;PMS5003;61747;54.966;73.394;2022-09-02T03:43:47;8.25;5.50;3.00
65680;PMS5003;61747;54.966;73.394;2022-09-02T03:46:24;5.25;5.00;2.00
65680;PMS5003;61747;54.966;73.394;2022-09-02T03:48:55;5.50;3.50;1.00
65680;PMS5003;61747;54.966;73.394;2022-09-02T03:51:21;6.00;3.00;1.00
65680;PMS5003;61747;54.966;73.394;2022-09-02T03:53:48;4.00;4.00;0.00
65680;PMS5003;61747;54.966;73.394;2022-09-02T03:56:14;5.00;5.00;2.00
65680;PMS5003;61747;54.966;73.394;2022-09-02T03:58:41;4.75;4.50;0.00
65680;PMS5003;61747;54.966;73.394;2022-09-02T04:01:11;4.00;4.00;0.00
65680;PMS5003;61747;54.966;73.394;2022-09-02T04:03:37;5.00;5.00;0.00
65680;PMS5003;61747;54.966;73.394;2022-09-02T04:06:03;5.33;4.00;0.00
65680;PMS5003;61747;54.966;73.394;2022-09-02T04:08:41;4.75;2.00;0.00
65680;PMS5003;61747;54.966;73.394;2022-09-02T04:11:11;5.00;4.75;0.00
65680;PMS5003;61747;54.966;73.394;2022-09-02T04:13:48;5.00;3.75;0.00
65680;PMS5003;61747;54.966;73.394;2022-09-02T04:16:20;5.00;4.75;0.00
65680;PMS5003;61747;54.966;73.394;2022-09-02T04:18:47;5.75;3.75;0.00
65680;PMS5003;61747;54.966;73.394;2022-09-02T04:21:13;8.00;4.67;1.00
65680;PMS5003;61747;54.966;73.394;2022-09-02T04:23:39;5.25;4.75;0.00
65680;PMS5003;61747;54.966;73.394;2022-09-02T04:26:06;5.50;5.25;0.00
65680;PMS5003;61747;54.966;73.394;2022-09-02T04:28:33;6.00;6.00;0.25
65680;PMS5003;61747;54.966;73.394;2022-09-02T04:31:06;6.00;6.00;0.00
65680;PMS5003;61747;54.966;73.394;2022-09-02T04:33:32;4.00;4.00;0.00
65680;PMS5003;61747;54.966;73.394;2022-09-02T04:36:05;5.00;4.00;0.00
65680;PMS5003;61747;54.966;73.394;2022-09-02T04:38:37;6.00;5.50;1.00
65680;PMS5003;61747;54.966;73.394;2022-09-02T04:41:07;5.00;4.75;1.00
65680;PMS5003;61747;54.966;73.394;2022-09-02T04:43:34;5.00;3.25;1.00
65680;PMS5003;61747;54.966;73.394;2022-09-02T04:46:10;5.00;5.00;1.00
65680;PMS5003;61747;54.966;73.394;2022-09-02T04:48:39;5.00;4.00;1.00
65680;PMS5003;61747;54.966;73.394;2022-09-02T04:51:07;7.00;6.00;1.00
65680;PMS5003;61747;54.966;73.394;2022-09-02T04:53:43;6.00;5.00;1.00
65680;PMS5003;61747;54.966;73.394;2022-09-02T04:56:15;8.00;5.00;0.00
65680;PMS5003;61747;54.966;73.394;2022-09-02T04:58:52;7.00;5.50;0.00
65680;PMS5003;61747;54.966;73.394;2022-09-02T05:01:27;7.00;5.00;3.00
65680;PMS5003;61747;54.966;73.394;2022-09-02T05:03:56;8.00;6.00;2.00
65680;PMS5003;61747;54.966;73.394;2022-09-02T05:06:26;6.00;4.75;2.00
65680;PMS5003;61747;54.966;73.394;2022-09-02T05:08:56;8.75;6.50;3.00
65680;PMS5003;61747;54.966;73.394;2022-09-02T05:11:26;8.25;6.00;3.00
65680;PMS5003;61747;54.966;73.394;2022-09-02T05:13:55;13.00;8.00;4.00
65680;PMS5003;61747;54.966;73.394;2022-09-02T05:16:32;10.75;6.50;2.75
65680;PMS5003;61747;54.966;73.394;2022-09-02T05:19:00;12.50;8.75;4.00
65680;PMS5003;61747;54.966;73.394;2022-09-02T05:21:37;14.50;9.00;5.00
65680;PMS5003;61747;54.966;73.394;2022-09-02T05:24:16;12.00;8.00;4.00
65680;PMS5003;61747;54.966;73.394;2022-09-02T05:26:42;9.50;8.00;5.00
65680;PMS5003;61747;54.966;73.394;2022-09-02T05:29:11;8.00;6.00;3.00
65680;PMS5003;61747;54.966;73.394;2022-09-02T05:31:38;7.75;7.50;2.00
65680;PMS5003;61747;54.966;73.394;2022-09-02T05:34:20;8.50;7.75;1.00
65680;PMS5003;61747;54.966;73.394;2022-09-02T05:36:49;10.00;7.00;1.00
65680;PMS5003;61747;54.966;73.394;2022-09-02T05:39:15;6.00;4.00;1.00
65680;PMS5003;61747;54.966;73.394;2022-09-02T05:41:41;5.00;4.75;1.00
65680;PMS5003;61747;54.966;73.394;2022-09-02T05:44:09;4.75;4.25;0.00
65680;PMS5003;61747;54.966;73.394;2022-09-02T05:46:36;5.25;5.25;0.00
65680;PMS5003;61747;54.966;73.394;2022-09-02T05:49:07;4.00;3.00;0.00
65680;PMS5003;61747;54.966;73.394;2022-09-02T05:52:18;3.00;2.00;0.00
65680;PMS5003;61747;54.966;73.394;2022-09-02T05:54:47;4.00;3.00;0.00
65680;PMS5003;61747;54.966;73.394;2022-09-02T05:57:21;4.50;2.00;0.00
65680;PMS5003;61747;54.966;73.394;2022-09-02T06:00:00;3.25;2.00;0.00
65680;PMS5003;61747;54.966;73.394;2022-09-02T06:02:38;3.00;3.00;0.00
65680;PMS5003;61747;54.966;73.394;2022-09-02T06:05:04;1.00;1.00;0.00
65680;PMS5003;61747;54.966;73.394;2022-09-02T06:07:31;3.50;3.00;0.00
65680;PMS5003;61747;54.966;73.394;2022-09-02T06:10:03;4.00;4.00;0.00
65680;PMS5003;61747;54.966;73.394;2022-09-02T06:12:30;5.00;4.00;0.00
65680;PMS5003;61747;54.966;73.394;2022-09-02T06:14:58;6.00;5.25;0.00
65680;PMS5003;61747;54.966;73.394;2022-09-02T06:17:31;5.00;4.00;0.00
65680;PMS5003;61747;54.966;73.394;2022-09-02T06:20:01;3.00;2.25;0.00
65680;PMS5003;61747;54.966;73.394;2022-09-02T06:22:28;4.25;2.75;0.00
65680;PMS5003;61747;54.966;73.394;2022-09-02T06:24:55;4.75;4.00;0.00
65680;PMS5003;61747;54.966;73.394;2022-09-02T06:27:24;6.00;2.75;0.00
65680;PMS5003;61747;54.966;73.394;2022-09-02T06:29:52;4.00;2.25;0.00
65680;PMS5003;61747;54.966;73.394;2022-09-02T06:32:20;3.50;2.75;0.00
65680;PMS5003;61747;54.966;73.394;2022-09-02T06:34:54;5.00;4.00;0.00
65680;PMS5003;61747;54.966;73.394;2022-09-02T06:37:21;5.00;3.00;0.00
65680;PMS5003;61747;54.966;73.394;2022-09-02T06:39:52;4.00;4.00;0.00
65680;PMS5003;61747;54.966;73.394;2022-09-02T06:42:24;4.00;3.00;0.00
65680;PMS5003;61747;54.966;73.394;2022-09-02T06:45:19;3.50;3.00;0.00
65680;PMS5003;61747;54.966;73.394;2022-09-02T06:47:46;4.25;4.25;1.00
65680;PMS5003;61747;54.966;73.394;2022-09-02T06:50:13;3.25;3.25;1.00
65680;PMS5003;61747;54.966;73.394;2022-09-02T06:52:40;6.00;5.75;1.00
65680;PMS5003;61747;54.966;73.394;2022-09-02T06:55:06;4.00;3.00;1.00
65680;PMS5003;61747;54.966;73.394;2022-09-02T06:57:32;2.00;2.00;0.00
65680;PMS5003;61747;54.966;73.394;2022-09-02T06:59:58;1.50;1.50;0.00
65680;PMS5003;61747;54.966;73.394;2022-09-02T07:02:24;4.00;2.33;0.00
65680;PMS5003;61747;54.966;73.394;2022-09-02T07:04:50;3.00;2.00;0.00
65680;PMS5003;61747;54.966;73.394;2022-09-02T07:07:46;2.00;2.00;0.00
65680;PMS5003;61747;54.966;73.394;2022-09-02T07:10:14;3.00;3.00;0.00
65680;PMS5003;61747;54.966;73.394;2022-09-02T07:12:45;3.50;3.25;0.00
65680;PMS5003;61747;54.966;73.394;2022-09-02T07:15:14;5.50;4.00;0.00
65680;PMS5003;61747;54.966;73.394;2022-09-02T07:17:51;4.00;3.00;0.00
65680;PMS5003;61747;54.966;73.394;2022-09-02T07:20:28;4.00;4.00;0.00
65680;PMS5003;61747;54.966;73.394;2022-09-02T07:22:58;2.25;2.00;0.00
65680;PMS5003;61747;54.966;73.394;2022-09-02T07:25:28;4.00;3.00;0.00
65680;PMS5003;61747;54.966;73.394;2022-09-02T07:27:54;5.33;3.33;0.00
65680;PMS5003;61747;54.966;73.394;2022-09-02T07:30:21;4.75;3.00;0.00
65680;PMS5003;61747;54.966;73.394;2022-09-02T07:32:53;4.00;3.00;0.00
65680;PMS5003;61747;54.966;73.394;2022-09-02T07:35:32;4.75;2.00;1.00
65680;PMS5003;61747;54.966;73.394;2022-09-02T07:38:09;3.25;2.75;1.00
65680;PMS5003;61747;54.966;73.394;2022-09-02T07:40:46;4.75;4.50;1.00
65680;PMS5003;61747;54.966;73.394;2022-09-02T07:43:14;2.75;2.00;0.00
65680;PMS5003;61747;54.966;73.394;2022-09-02T07:45:40;3.25;2.00;0.00
65680;PMS5003;61747;54.966;73.394;2022-09-02T07:48:13;2.25;2.25;0.00
65680;PMS5003;61747;54.966;73.394;2022-09-02T07:50:50;4.00;4.00;0.00
65680;PMS5003;61747;54.966;73.394;2022-09-02T07:53:17;4.00;4.00;0.00
65680;PMS5003;61747;54.966;73.394;2022-09-02T07:55:44;3.00;3.00;0.00
65680;PMS5003;61747;54.966;73.394;2022-09-02T07:58:20;4.00;4.00;0.00
65680;PMS5003;61747;54.966;73.394;2022-09-02T08:00:47;4.00;4.00;0.00
65680;PMS5003;61747;54.966;73.394;2022-09-02T08:03:14;4.00;3.00;0.00
65680;PMS5003;61747;54.966;73.394;2022-09-02T08:05:51;5.00;5.00;1.25
65680;PMS5003;61747;54.966;73.394;2022-09-02T08:08:18;4.00;4.00;1.00
65680;PMS5003;61747;54.966;73.394;2022-09-02T08:10:50;6.25;6.25;0.00
65680;PMS5003;61747;54.966;73.394;2022-09-02T08:13:26;4.25;4.25;0.00
65680;PMS5003;61747;54.966;73.394;2022-09-02T08:15:52;3.33;3.33;0.00
65680;PMS5003;61747;54.966;73.394;2022-09-02T08:18:18;4.75;3.50;0.00
65680;PMS5003;61747;54.966;73.394;2022-09-02T08:20:45;4.00;4.00;0.00
65680;PMS5003;61747;54.966;73.394;2022-09-02T08:23:12;2.00;2.00;0.00
65680;PMS5003;61747;54.966;73.394;2022-09-02T08:25:39;2.00;1.00;0.00
65680;PMS5003;61747;54.966;73.394;2022-09-02T08:28:05;4.00;2.00;0.00
65680;PMS5003;61747;54.966;73.394;2022-09-02T08:30:31;2.50;0.00;0.00
65680;PMS5003;61747;54.966;73.394;2022-09-02T08:32:57;4.50;4.00;0.00
65680;PMS5003;61747;54.966;73.394;2022-09-02T08:35:23;3.00;3.00;1.00
65680;PMS5003;61747;54.966;73.394;2022-09-02T08:37:50;2.50;1.50;0.50
65680;PMS5003;61747;54.966;73.394;2022-09-02T08:40:17;2.67;1.67;0.00
65680;PMS5003;61747;54.966;73.394;2022-09-02T08:42:50;4.00;1.00;0.00
65680;PMS5003;61747;54.966;73.394;2022-09-02T08:45:36;5.50;1.75;0.00
65680;PMS5003;61747;54.966;73.394;2022-09-02T08:50:57;3.75;2.00;0.00
65680;PMS5003;61747;54.966;73.394;2022-09-02T08:55:52;3.00;2.00;0.00
65680;PMS5003;61747;54.966;73.394;2022-09-02T08:58:26;4.00;2.50;0.00
65680;PMS5003;61747;54.966;73.394;2022-09-02T09:06:15;2.00;0.00;0.00
65680;PMS5003;61747;54.966;73.394;2022-09-02T09:08:47;2.00;2.00;0.00
65680;PMS5003;61747;54.966;73.394;2022-09-02T09:21:25;3.00;1.00;0.00
65680;PMS5003;61747;54.966;73.394;2022-09-02T09:23:56;2.00;0.00;0.00
65680;PMS5003;61747;54.966;73.394;2022-09-02T09:26:27;3.50;1.00;0.00
65680;PMS5003;61747;54.966;73.394;2022-09-02T09:28:53;5.00;2.00;0.00
65680;PMS5003;61747;54.966;73.394;2022-09-02T09:31:21;3.50;3.00;0.00
65680;PMS5003;61747;54.966;73.394;2022-09-02T09:41:49;4.25;3.00;0.00
65680;PMS5003;61747;54.966;73.394;2022-09-02T09:47:09;2.00;1.00;0.00
65680;PMS5003;61747;54.966;73.394;2022-09-02T09:49:38;2.50;2.00;0.00
65680;PMS5003;61747;54.966;73.394;2022-09-02T09:52:04;6.50;4.50;0.00
65680;PMS5003;61747;54.966;73.394;2022-09-02T09:54:35;3.25;3.00;0.00
65680;PMS5003;61747;54.966;73.394;2022-09-02T09:57:20;3.00;3.00;0.00
65680;PMS5003;61747;54.966;73.394;2022-09-02T09:59:55;3.00;3.00;0.00
65680;PMS5003;61747;54.966;73.394;2022-09-02T10:02:32;2.00;2.00;0.00
65680;PMS5003;61747;54.966;73.394;2022-09-02T10:05:10;1.67;1.00;0.00
65680;PMS5003;61747;54.966;73.394;2022-09-02T10:07:40;2.00;1.00;0.00
65680;PMS5003;61747;54.966;73.394;2022-09-02T10:10:18;2.00;1.50;0.00
65680;PMS5003;61747;54.966;73.394;2022-09-02T10:12:44;0.00;0.00;0.00
65680;PMS5003;61747;54.966;73.394;2022-09-02T10:15:26;2.00;1.00;0.00
65680;PMS5003;61747;54.966;73.394;2022-09-02T10:23:20;2.25;1.25;0.00
65680;PMS5003;61747;54.966;73.394;2022-09-02T10:31:27;1.50;1.50;0.00
65680;PMS5003;61747;54.966;73.394;2022-09-02T10:33:58;2.00;2.00;0.00
65680;PMS5003;61747;54.966;73.394;2022-09-02T10:39:13;2.00;1.00;0.00
65680;PMS5003;61747;54.966;73.394;2022-09-02T10:41:47;2.00;2.00;0.00
65680;PMS5003;61747;54.966;73.394;2022-09-02T10:49:28;1.75;1.00;0.00
65680;PMS5003;61747;54.966;73.394;2022-09-02T10:59:28;3.00;2.00;0.00
65680;PMS5003;61747;54.966;73.394;2022-09-02T11:02:08;0.00;0.00;0.00
65680;PMS5003;61747;54.966;73.394;2022-09-02T11:04:39;1.00;1.00;0.00
65680;PMS5003;61747;54.966;73.394;2022-09-02T11:07:24;1.75;1.00;0.00
65680;PMS5003;61747;54.966;73.394;2022-09-02T11:10:04;0.25;0.00;0.00
65680;PMS5003;61747;54.966;73.394;2022-09-02T11:12:35;0.00;0.00;0.00
65680;PMS5003;61747;54.966;73.394;2022-09-02T11:15:08;0.00;0.00;0.00
65680;PMS5003;61747;54.966;73.394;2022-09-02T11:17:46;0.00;0.00;0.00
65680;PMS5003;61747;54.966;73.394;2022-09-02T11:20:17;0.00;0.00;0.00
65680;PMS5003;61747;54.966;73.394;2022-09-02T11:28:02;0.00;0.00;0.00
65680;PMS5003;61747;54.966;73.394;2022-09-02T11:30:44;0.00;0.00;0.00
65680;PMS5003;61747;54.966;73.394;2022-09-02T11:36:09;2.75;0.00;0.00
65680;PMS5003;61747;54.966;73.394;2022-09-02T11:38:36;0.00;0.00;0.00
65680;PMS5003;61747;54.966;73.394;2022-09-02T11:43:49;2.50;0.75;0.00
65680;PMS5003;61747;54.966;73.394;2022-09-02T11:54:21;0.00;0.00;0.00
65680;PMS5003;61747;54.966;73.394;2022-09-02T11:56:49;1.75;0.00;0.00
65680;PMS5003;61747;54.966;73.394;2022-09-02T11:59:21;1.25;0.00;0.00
65680;PMS5003;61747;54.966;73.394;2022-09-02T12:01:52;3.00;0.00;0.00
65680;PMS5003;61747;54.966;73.394;2022-09-02T12:04:20;2.00;2.00;0.00
65680;PMS5003;61747;54.966;73.394;2022-09-02T12:15:15;1.75;1.00;0.00
65680;PMS5003;61747;54.966;73.394;2022-09-02T12:25:56;1.00;0.00;0.00
65680;PMS5003;61747;54.966;73.394;2022-09-02T12:28:28;2.00;1.00;0.00
65680;PMS5003;61747;54.966;73.394;2022-09-02T12:33:32;6.00;6.00;0.00
65680;PMS5003;61747;54.966;73.394;2022-09-02T12:36:03;5.00;4.50;0.00
65680;PMS5003;61747;54.966;73.394;2022-09-02T12:38:39;9.00;6.25;1.00
65680;PMS5003;61747;54.966;73.394;2022-09-02T12:49:08;5.00;4.00;1.00
65680;PMS5003;61747;54.966;73.394;2022-09-02T12:51:51;6.00;5.00;0.50
65680;PMS5003;61747;54.966;73.394;2022-09-02T12:55:01;6.00;5.50;2.00
65680;PMS5003;61747;54.966;73.394;2022-09-02T12:57:16;5.00;4.00;1.00
65680;PMS5003;61747;54.966;73.394;2022-09-02T12:59:43;4.50;4.50;1.00
65680;PMS5003;61747;54.966;73.394;2022-09-02T13:02:26;4.00;3.25;0.00
65680;PMS5003;61747;54.966;73.394;2022-09-02T13:31:40;7.00;6.25;1.00
65680;PMS5003;61747;54.966;73.394;2022-09-02T13:34:10;12.75;8.50;3.00
65680;PMS5003;61747;54.966;73.394;2022-09-02T13:36:46;12.00;8.25;4.00
65680;PMS5003;61747;54.966;73.394;2022-09-02T13:39:19;10.33;7.33;2.00
65680;PMS5003;61747;54.966;73.394;2022-09-02T13:41:55;6.25;5.50;2.00
65680;PMS5003;61747;54.966;73.394;2022-09-02T13:44:25;7.00;6.00;1.00
65680;PMS5003;61747;54.966;73.394;2022-09-02T13:47:03;8.50;8.50;3.00
65680;PMS5003;61747;54.966;73.394;2022-09-02T13:49:31;9.25;9.00;5.00
65680;PMS5003;61747;54.966;73.394;2022-09-02T13:51:59;10.25;9.25;5.00
65680;PMS5003;61747;54.966;73.394;2022-09-02T13:54:32;16.75;12.00;6.00
65680;PMS5003;61747;54.966;73.394;2022-09-02T13:57:09;15.75;11.00;3.00
65680;PMS5003;61747;54.966;73.394;2022-09-02T13:59:39;9.00;6.50;2.75
65680;PMS5003;61747;54.966;73.394;2022-09-02T14:02:19;10.00;10.00;4.50
65680;PMS5003;61747;54.966;73.394;2022-09-02T14:04:55;10.50;7.00;2.00
65680;PMS5003;61747;54.966;73.394;2022-09-02T14:07:29;14.75;12.50;7.00
65680;PMS5003;61747;54.966;73.394;2022-09-02T14:09:57;16.00;13.00;7.00
65680;PMS5003;61747;54.966;73.394;2022-09-02T14:12:25;16.75;14.00;7.00
65680;PMS5003;61747;54.966;73.394;2022-09-02T14:14:52;18.75;14.00;6.00
65680;PMS5003;61747;54.966;73.394;2022-09-02T14:17:21;20.00;15.75;8.00
65680;PMS5003;61747;54.966;73.394;2022-09-02T14:19:47;22.00;17.75;8.00
65680;PMS5003;61747;54.966;73.394;2022-09-02T14:22:22;20.75;18.00;9.00
65680;PMS5003;61747;54.966;73.394;2022-09-02T14:24:48;17.75;16.00;7.75
65680;PMS5003;61747;54.966;73.394;2022-09-02T14:27:16;16.50;16.00;8.00
65680;PMS5003;61747;54.966;73.394;2022-09-02T14:29:46;19.25;17.00;7.00
65680;PMS5003;61747;54.966;73.394;2022-09-02T14:32:20;18.00;14.00;5.00
65680;PMS5003;61747;54.966;73.394;2022-09-02T14:34:47;16.00;15.00;5.25
65680;PMS5003;61747;54.966;73.394;2022-09-02T14:37:20;16.25;15.00;6.75
65680;PMS5003;61747;54.966;73.394;2022-09-02T14:39:50;17.75;14.50;7.00
65680;PMS5003;61747;54.966;73.394;2022-09-02T14:42:16;16.50;13.00;6.00
65680;PMS5003;61747;54.966;73.394;2022-09-02T14:44:41;16.00;12.33;5.00
65680;PMS5003;61747;54.966;73.394;2022-09-02T14:47:14;15.50;11.00;5.00
65680;PMS5003;61747;54.966;73.394;2022-09-02T14:52:26;18.00;12.00;7.00
65680;PMS5003;61747;54.966;73.394;2022-09-02T14:54:53;18.75;15.00;8.00
65680;PMS5003;61747;54.966;73.394;2022-09-02T14:59:50;22.00;19.00;8.25
65680;PMS5003;61747;54.966;73.394;2022-09-02T15:04:52;21.33;19.00;7.00
65680;PMS5003;61747;54.966;73.394;2022-09-02T15:07:18;19.00;14.50;6.00
65680;PMS5003;61747;54.966;73.394;2022-09-02T15:09:44;16.67;14.67;6.00
65680;PMS5003;61747;54.966;73.394;2022-09-02T15:12:21;18.00;15.00;7.00
65680;PMS5003;61747;54.966;73.394;2022-09-02T15:14:55;15.00;13.00;6.00
65680;PMS5003;61747;54.966;73.394;2022-09-02T15:17:21;15.25;12.50;6.00
65680;PMS5003;61747;54.966;73.394;2022-09-02T15:19:56;17.00;13.50;6.00
65680;PMS5003;61747;54.966;73.394;2022-09-02T15:22:22;18.00;15.00;5.00
65680;PMS5003;61747;54.966;73.394;2022-09-02T15:24:53;16.00;14.00;4.00
65680;PMS5003;61747;54.966;73.394;2022-09-02T15:27:30;13.25;10.25;4.00
65680;PMS5003;61747;54.966;73.394;2022-09-02T15:29:55;10.33;7.00;2.67
65680;PMS5003;61747;54.966;73.394;2022-09-02T15:32:21;9.33;9.00;4.00
65680;PMS5003;61747;54.966;73.394;2022-09-02T15:34:51;11.00;9.75;4.50
65680;PMS5003;61747;54.966;73.394;2022-09-02T15:37:21;13.00;11.00;4.50
65680;PMS5003;61747;54.966;73.394;2022-09-02T15:39:48;13.00;8.00;4.00
65680;PMS5003;61747;54.966;73.394;2022-09-02T15:42:14;14.00;9.25;4.00
65680;PMS5003;61747;54.966;73.394;2022-09-02T15:44:42;11.00;9.00;3.00
65680;PMS5003;61747;54.966;73.394;2022-09-02T15:47:08;10.00;8.50;4.00
65680;PMS5003;61747;54.966;73.394;2022-09-02T15:49:39;9.00;6.00;3.00
65680;PMS5003;61747;54.966;73.394;2022-09-02T15:52:09;10.00;8.00;3.50
65680;PMS5003;61747;54.966;73.394;2022-09-02T15:54:35;10.50;8.50;3.00
65680;PMS5003;61747;54.966;73.394;2022-09-02T15:57:01;10.00;8.67;3.00
65680;PMS5003;61747;54.966;73.394;2022-09-02T15:59:37;11.50;9.50;4.00
65680;PMS5003;61747;54.966;73.394;2022-09-02T16:02:03;11.67;10.00;5.00
65680;PMS5003;61747;54.966;73.394;2022-09-02T16:04:38;12.25;8.75;4.25
65680;PMS5003;61747;54.966;73.394;2022-09-02T16:07:04;10.00;7.67;4.33
65680;PMS5003;61747;54.966;73.394;2022-09-02T16:09:35;15.00;10.25;5.00
65680;PMS5003;61747;54.966;73.394;2022-09-02T16:12:11;15.00;12.00;4.00
65680;PMS5003;61747;54.966;73.394;2022-09-02T16:14:36;15.33;11.67;4.00
65680;PMS5003;61747;54.966;73.394;2022-09-02T16:17:02;14.00;9.00;4.00
65680;PMS5003;61747;54.966;73.394;2022-09-02T16:19:36;12.50;8.75;3.50
65680;PMS5003;61747;54.966;73.394;2022-09-02T16:22:11;9.00;6.00;3.00
65680;PMS5003;61747;54.966;73.394;2022-09-02T16:24:37;8.00;7.00;2.50
65680;PMS5003;61747;54.966;73.394;2022-09-02T16:27:02;7.00;7.00;3.00
65680;PMS5003;61747;54.966;73.394;2022-09-02T16:29:28;8.00;7.00;2.00
65680;PMS5003;61747;54.966;73.394;2022-09-02T16:31:55;8.00;7.00;3.00
65680;PMS5003;61747;54.966;73.394;2022-09-02T16:34:21;9.00;6.00;2.00
65680;PMS5003;61747;54.966;73.394;2022-09-02T16:36:47;9.00;6.00;2.00
65680;PMS5003;61747;54.966;73.394;2022-09-02T16:39:14;5.00;5.00;1.00
65680;PMS5003;61747;54.966;73.394;2022-09-02T16:41:49;6.00;5.00;1.00
65680;PMS5003;61747;54.966;73.394;2022-09-02T16:44:23;7.50;6.50;2.00